DAH6012 DAAG-DABC
Flight info
| Callsign | DAH6012 |
|---|---|
| Flight time | 0h 37m |
| Altitude | 25000 |
| Route | ALR DCT BNA DCT BABOR UA31 CSO |
| Aircraft | B738/M-SDE2E3FGHIRWXY/LB1 |
Departure
| Time | 2026-05-08 15:43 |
|---|---|
| Airport | Houari Boumediene Airport (DAAG) |
Arrival
| Time | 2026-05-08 16:20 |
|---|---|
| Airport | Mohamed Boudiaf International Airport (DABC) |
| Time | Latitude | Longitude | Altitude | Speed | Heading |
|---|---|---|---|---|---|
| 2026-05-08 15:31 | 36.69413 | 3.22066 | 85 ft | 0 kts | 52° |
| 2026-05-08 15:43 | 36.69419 | 3.22076 | 85 ft | 13 kts | 52° |
| 2026-05-08 15:43 | 36.69755 | 3.22623 | 91 ft | 141 kts | 52° |
| 2026-05-08 15:43 | 36.70473 | 3.23858 | 679 ft | 202 kts | 57° |
| 2026-05-08 15:43 | 36.71420 | 3.25479 | 1242 ft | 266 kts | 53° |
| 2026-05-08 15:44 | 36.72787 | 3.27012 | 2872 ft | 275 kts | 33° |
| 2026-05-08 15:44 | 36.74606 | 3.28018 | 3780 ft | 312 kts | 20° |
| 2026-05-08 15:44 | 36.76881 | 3.28524 | 4554 ft | 346 kts | 1° |
| 2026-05-08 15:44 | 36.79270 | 3.28088 | 5642 ft | 362 kts | 343° |
| 2026-05-08 15:45 | 36.81626 | 3.26695 | 6335 ft | 384 kts | 323° |
| 2026-05-08 15:45 | 36.83076 | 3.24842 | 10077 ft | 305 kts | 312° |
| 2026-05-08 15:45 | 36.84199 | 3.22544 | 10940 ft | 324 kts | 294° |
| 2026-05-08 15:45 | 36.85046 | 3.19763 | 11187 ft | 362 kts | 288° |
| 2026-05-08 15:46 | 36.85746 | 3.16725 | 12177 ft | 365 kts | 275° |
| 2026-05-08 15:46 | 36.85210 | 3.13969 | 14524 ft | 329 kts | 244° |
| 2026-05-08 15:46 | 36.83886 | 3.11706 | 15743 ft | 329 kts | 230° |
| 2026-05-08 15:46 | 36.82181 | 3.09727 | 16246 ft | 350 kts | 222° |
| 2026-05-08 15:47 | 36.80261 | 3.07782 | 16926 ft | 360 kts | 207° |
| 2026-05-08 15:47 | 36.77934 | 3.07114 | 18584 ft | 343 kts | 187° |
| 2026-05-08 15:47 | 36.75545 | 3.07195 | 19308 ft | 353 kts | 171° |
| 2026-05-08 15:47 | 36.73563 | 3.08488 | 21376 ft | 319 kts | 144° |
| 2026-05-08 15:48 | 36.70486 | 3.12696 | 22558 ft | 341 kts | 124° |
| 2026-05-08 15:48 | 36.69607 | 3.15235 | 24084 ft | 322 kts | 108° |
| 2026-05-08 15:48 | 36.68986 | 3.17927 | 24781 ft | 326 kts | 102° |
| 2026-05-08 15:49 | 36.68843 | 3.20639 | 25978 ft | 311 kts | 89° |
| 2026-05-08 15:49 | 36.68847 | 3.23387 | 26267 ft | 325 kts | 91° |
| 2026-05-08 15:49 | 36.68653 | 3.26336 | 25947 ft | 353 kts | 95° |
| 2026-05-08 15:49 | 36.68491 | 3.29379 | 25869 ft | 361 kts | 92° |
| 2026-05-08 15:50 | 36.68331 | 3.32518 | 25700 ft | 371 kts | 93° |
| 2026-05-08 15:50 | 36.68375 | 3.35750 | 25657 ft | 375 kts | 85° |
| 2026-05-08 15:50 | 36.68385 | 3.39091 | 24782 ft | 401 kts | 96° |
| 2026-05-08 15:50 | 36.67990 | 3.42422 | 25460 ft | 388 kts | 99° |
| 2026-05-08 15:51 | 36.67444 | 3.45770 | 25309 ft | 404 kts | 102° |
| 2026-05-08 15:51 | 36.66813 | 3.49249 | 25252 ft | 416 kts | 102° |
| 2026-05-08 15:51 | 36.66183 | 3.52783 | 25248 ft | 426 kts | 102° |
| 2026-05-08 15:51 | 36.65561 | 3.56446 | 25248 ft | 433 kts | 101° |
| 2026-05-08 15:52 | 36.64971 | 3.60095 | 25251 ft | 434 kts | 100° |
| 2026-05-08 15:52 | 36.64400 | 3.63772 | 25246 ft | 433 kts | 100° |
| 2026-05-08 15:52 | 36.63842 | 3.67489 | 25248 ft | 433 kts | 100° |
| 2026-05-08 15:52 | 36.63301 | 3.71178 | 25250 ft | 434 kts | 100° |
| 2026-05-08 15:53 | 36.62772 | 3.74850 | 25253 ft | 434 kts | 99° |
| 2026-05-08 15:53 | 36.62250 | 3.78513 | 25255 ft | 433 kts | 99° |
| 2026-05-08 15:53 | 36.61724 | 3.82237 | 25262 ft | 434 kts | 99° |
| 2026-05-08 15:53 | 36.61206 | 3.85924 | 25269 ft | 433 kts | 99° |
| 2026-05-08 15:54 | 36.60695 | 3.89577 | 25280 ft | 434 kts | 99° |
| 2026-05-08 15:54 | 36.60181 | 3.93255 | 25286 ft | 434 kts | 99° |
| 2026-05-08 15:54 | 36.59665 | 3.96954 | 25292 ft | 433 kts | 99° |
| 2026-05-08 15:54 | 36.59148 | 4.00670 | 25302 ft | 434 kts | 99° |
| 2026-05-08 15:55 | 36.58638 | 4.04345 | 25304 ft | 435 kts | 99° |
| 2026-05-08 15:55 | 36.57614 | 4.11746 | 25312 ft | 433 kts | 99° |
| 2026-05-08 15:55 | 36.57109 | 4.15405 | 25315 ft | 433 kts | 99° |
| 2026-05-08 15:56 | 36.56601 | 4.19091 | 25313 ft | 432 kts | 99° |
| 2026-05-08 15:56 | 36.56096 | 4.22773 | 25316 ft | 433 kts | 98° |
| 2026-05-08 15:56 | 36.55593 | 4.26440 | 25316 ft | 433 kts | 98° |
| 2026-05-08 15:56 | 36.55088 | 4.30137 | 25320 ft | 433 kts | 98° |
| 2026-05-08 15:57 | 36.54583 | 4.33839 | 25323 ft | 433 kts | 98° |
| 2026-05-08 15:57 | 36.54083 | 4.37510 | 25321 ft | 433 kts | 98° |
| 2026-05-08 15:57 | 36.53580 | 4.41218 | 25323 ft | 434 kts | 98° |
| 2026-05-08 15:57 | 36.53086 | 4.44861 | 25322 ft | 433 kts | 98° |
| 2026-05-08 15:58 | 36.52586 | 4.48566 | 25322 ft | 433 kts | 98° |
| 2026-05-08 15:58 | 36.52092 | 4.52233 | 25320 ft | 433 kts | 98° |
| 2026-05-08 15:58 | 36.51599 | 4.55896 | 25324 ft | 433 kts | 98° |
| 2026-05-08 15:58 | 36.51102 | 4.59603 | 25324 ft | 433 kts | 98° |
| 2026-05-08 15:59 | 36.50610 | 4.63269 | 25324 ft | 433 kts | 98° |
| 2026-05-08 15:59 | 36.50118 | 4.66958 | 25324 ft | 433 kts | 98° |
| 2026-05-08 15:59 | 36.49622 | 4.70676 | 25330 ft | 434 kts | 98° |
| 2026-05-08 15:59 | 36.49131 | 4.74366 | 25328 ft | 433 kts | 98° |
| 2026-05-08 16:00 | 36.48649 | 4.78002 | 25329 ft | 434 kts | 98° |
| 2026-05-08 16:00 | 36.48154 | 4.81736 | 25327 ft | 434 kts | 98° |
| 2026-05-08 16:00 | 36.47670 | 4.85402 | 25326 ft | 434 kts | 98° |
| 2026-05-08 16:00 | 36.47186 | 4.89069 | 25323 ft | 434 kts | 98° |
| 2026-05-08 16:01 | 36.46698 | 4.92774 | 25324 ft | 433 kts | 98° |
| 2026-05-08 16:01 | 36.46214 | 4.96464 | 25327 ft | 433 kts | 98° |
| 2026-05-08 16:01 | 36.45729 | 5.00175 | 25323 ft | 434 kts | 98° |
| 2026-05-08 16:01 | 36.45251 | 5.03836 | 25323 ft | 433 kts | 98° |
| 2026-05-08 16:02 | 36.44767 | 5.07550 | 25325 ft | 433 kts | 98° |
| 2026-05-08 16:02 | 36.44289 | 5.11234 | 25328 ft | 433 kts | 98° |
| 2026-05-08 16:02 | 36.43816 | 5.14876 | 25333 ft | 433 kts | 97° |
| 2026-05-08 16:02 | 36.43336 | 5.18581 | 25337 ft | 433 kts | 97° |
| 2026-05-08 16:03 | 36.42863 | 5.22244 | 25343 ft | 433 kts | 97° |
| 2026-05-08 16:03 | 36.42386 | 5.25950 | 25343 ft | 433 kts | 97° |
| 2026-05-08 16:03 | 36.41914 | 5.29621 | 25347 ft | 434 kts | 97° |
| 2026-05-08 16:03 | 36.41435 | 5.33354 | 25350 ft | 434 kts | 97° |
| 2026-05-08 16:04 | 36.40969 | 5.36999 | 25355 ft | 433 kts | 97° |
| 2026-05-08 16:04 | 36.40494 | 5.40727 | 25360 ft | 434 kts | 97° |
| 2026-05-08 16:04 | 36.40028 | 5.44394 | 25357 ft | 434 kts | 97° |
| 2026-05-08 16:04 | 36.39556 | 5.48113 | 25356 ft | 434 kts | 97° |
| 2026-05-08 16:05 | 36.39091 | 5.51783 | 25354 ft | 434 kts | 97° |
| 2026-05-08 16:05 | 36.38628 | 5.55454 | 25353 ft | 434 kts | 97° |
| 2026-05-08 16:05 | 36.38163 | 5.59145 | 25351 ft | 434 kts | 97° |
| 2026-05-08 16:05 | 36.37698 | 5.62842 | 25347 ft | 433 kts | 97° |
| 2026-05-08 16:06 | 36.37239 | 5.66502 | 25344 ft | 433 kts | 97° |
| 2026-05-08 16:06 | 36.36778 | 5.70195 | 25340 ft | 433 kts | 97° |
| 2026-05-08 16:06 | 36.36319 | 5.73873 | 25335 ft | 433 kts | 97° |
| 2026-05-08 16:06 | 36.35858 | 5.77572 | 25330 ft | 433 kts | 97° |
| 2026-05-08 16:07 | 36.35402 | 5.81245 | 25329 ft | 434 kts | 97° |
| 2026-05-08 16:07 | 36.34942 | 5.84957 | 25327 ft | 433 kts | 97° |
| 2026-05-08 16:07 | 36.34486 | 5.88656 | 25325 ft | 434 kts | 97° |
| 2026-05-08 16:07 | 36.34034 | 5.92317 | 25324 ft | 433 kts | 97° |
| 2026-05-08 16:08 | 36.33578 | 5.96032 | 25323 ft | 434 kts | 97° |
| 2026-05-08 16:08 | 36.33130 | 5.99686 | 25321 ft | 433 kts | 96° |
| 2026-05-08 16:08 | 36.32675 | 6.03405 | 25322 ft | 434 kts | 96° |
| 2026-05-08 16:08 | 36.32230 | 6.07048 | 25325 ft | 433 kts | 96° |
| 2026-05-08 16:09 | 36.31783 | 6.10727 | 25329 ft | 432 kts | 96° |
| 2026-05-08 16:09 | 36.31333 | 6.14440 | 25331 ft | 432 kts | 96° |
| 2026-05-08 16:09 | 36.30891 | 6.18101 | 25333 ft | 433 kts | 96° |
| 2026-05-08 16:09 | 36.30448 | 6.21770 | 25331 ft | 432 kts | 96° |
| 2026-05-08 16:10 | 36.30004 | 6.25455 | 25335 ft | 433 kts | 96° |
| 2026-05-08 16:10 | 36.29560 | 6.29144 | 25332 ft | 432 kts | 96° |
| 2026-05-08 16:10 | 36.29123 | 6.32786 | 25334 ft | 433 kts | 96° |
| 2026-05-08 16:10 | 36.28682 | 6.36467 | 25334 ft | 432 kts | 96° |
| 2026-05-08 16:11 | 36.28241 | 6.40172 | 25338 ft | 433 kts | 96° |
| 2026-05-08 16:11 | 36.27805 | 6.43828 | 25341 ft | 433 kts | 96° |
| 2026-05-08 16:11 | 36.27366 | 6.47521 | 25344 ft | 432 kts | 96° |
| 2026-05-08 16:11 | 36.26929 | 6.51208 | 25343 ft | 432 kts | 96° |
| 2026-05-08 16:12 | 36.26499 | 6.54918 | 25345 ft | 432 kts | 95° |
| 2026-05-08 16:12 | 36.26323 | 6.58586 | 25277 ft | 428 kts | 92° |
| 2026-05-08 16:12 | 36.25647 | 6.62120 | 23593 ft | 438 kts | 111° |
| 2026-05-08 16:12 | 36.23779 | 6.64938 | 21638 ft | 440 kts | 140° |
| 2026-05-08 16:13 | 36.21207 | 6.66706 | 17299 ft | 484 kts | 158° |
| 2026-05-08 16:13 | 36.18108 | 6.67004 | 11094 ft | 523 kts | 198° |
| 2026-05-08 16:13 | 36.15579 | 6.64421 | 9832 ft | 454 kts | 242° |
| 2026-05-08 16:13 | 36.15665 | 6.61150 | 9167 ft | 391 kts | 317° |
| 2026-05-08 16:14 | 36.17702 | 6.61760 | 7309 ft | 369 kts | 69° |
| 2026-05-08 16:14 | 36.17622 | 6.64763 | 5474 ft | 362 kts | 94° |
| 2026-05-08 16:14 | 36.17586 | 6.67721 | 4979 ft | 323 kts | 92° |
| 2026-05-08 16:14 | 36.17333 | 6.70272 | 4784 ft | 275 kts | 105° |
| 2026-05-08 16:15 | 36.16565 | 6.72182 | 4577 ft | 227 kts | 128° |
| 2026-05-08 16:15 | 36.15632 | 6.73534 | 4531 ft | 190 kts | 135° |
| 2026-05-08 16:15 | 36.14710 | 6.74636 | 4187 ft | 183 kts | 135° |
| 2026-05-08 16:15 | 36.14131 | 6.75991 | 3927 ft | 176 kts | 99° |
| 2026-05-08 16:16 | 36.14364 | 6.77388 | 3814 ft | 164 kts | 55° |
| 2026-05-08 16:16 | 36.15311 | 6.77901 | 3629 ft | 151 kts | 346° |
| 2026-05-08 16:16 | 36.16170 | 6.77261 | 3485 ft | 141 kts | 308° |
| 2026-05-08 16:16 | 36.16810 | 6.76319 | 3476 ft | 146 kts | 310° |
| 2026-05-08 16:17 | 36.17546 | 6.75329 | 3608 ft | 164 kts | 312° |
| 2026-05-08 16:17 | 36.18286 | 6.74342 | 3712 ft | 148 kts | 313° |
| 2026-05-08 16:17 | 36.18970 | 6.73425 | 3688 ft | 144 kts | 308° |
| 2026-05-08 16:17 | 36.19641 | 6.72458 | 3586 ft | 148 kts | 312° |
| 2026-05-08 16:18 | 36.20339 | 6.71508 | 3458 ft | 152 kts | 310° |
| 2026-05-08 16:18 | 36.21060 | 6.70482 | 3252 ft | 161 kts | 310° |
| 2026-05-08 16:18 | 36.21826 | 6.69472 | 3129 ft | 162 kts | 313° |
| 2026-05-08 16:18 | 36.22629 | 6.68462 | 2963 ft | 166 kts | 314° |
| 2026-05-08 16:19 | 36.23449 | 6.67474 | 2802 ft | 161 kts | 313° |
| 2026-05-08 16:19 | 36.24210 | 6.66493 | 2628 ft | 158 kts | 314° |
| 2026-05-08 16:19 | 36.25005 | 6.65590 | 2535 ft | 151 kts | 317° |
| 2026-05-08 16:19 | 36.25769 | 6.64718 | 2404 ft | 149 kts | 317° |
| 2026-05-08 16:20 | 36.26483 | 6.63852 | 2366 ft | 138 kts | 310° |
| 2026-05-08 16:20 | 36.27146 | 6.63025 | 2289 ft | 135 kts | 317° |
| 2026-05-08 16:20 | 36.27777 | 6.62287 | 2272 ft | 100 kts | 314° |
| 2026-05-08 16:20 | 36.28068 | 6.61939 | 2289 ft | 38 kts | 311° |
| 2026-05-08 16:21 | 36.28257 | 6.61713 | 2298 ft | 26 kts | 316° |
| 2026-05-08 16:21 | 36.28404 | 6.61540 | 2300 ft | 25 kts | 344° |
| 2026-05-08 16:21 | 36.28539 | 6.61668 | 2290 ft | 28 kts | 95° |
| 2026-05-08 16:21 | 36.28463 | 6.61792 | 2290 ft | 9 kts | 53° |
| 2026-05-08 16:22 | 36.28534 | 6.61791 | 2288 ft | 10 kts | 349° |
| 2026-05-08 16:22 | 36.28545 | 6.61782 | 2288 ft | 0 kts | 289° |
| 2026-05-08 16:22 | 36.28546 | 6.61781 | 2288 ft | 0 kts | 289° |
| 2026-05-08 16:23 | 36.28546 | 6.61780 | 2288 ft | 0 kts | 289° |